sensor_id;sensor_type;location;lat;lon;timestamp;P1;durP1;ratioP1;P2;durP2;ratioP2
4577;SDS011;2301;47.354;8.528;2023-05-19T00:02:21;7.40;;;2.13;;
4577;SDS011;2301;47.354;8.528;2023-05-19T00:04:50;3.33;;;2.00;;
4577;SDS011;2301;47.354;8.528;2023-05-19T00:07:18;4.80;;;2.40;;
4577;SDS011;2301;47.354;8.528;2023-05-19T00:09:53;4.70;;;2.00;;
4577;SDS011;2301;47.354;8.528;2023-05-19T00:12:21;4.97;;;1.60;;
4577;SDS011;2301;47.354;8.528;2023-05-19T00:14:49;4.10;;;2.10;;
4577;SDS011;2301;47.354;8.528;2023-05-19T00:17:16;3.87;;;2.00;;
4577;SDS011;2301;47.354;8.528;2023-05-19T00:19:44;3.17;;;2.10;;
4577;SDS011;2301;47.354;8.528;2023-05-19T00:22:11;3.77;;;1.70;;
4577;SDS011;2301;47.354;8.528;2023-05-19T00:24:39;5.27;;;2.20;;
4577;SDS011;2301;47.354;8.528;2023-05-19T00:27:06;3.57;;;1.47;;
4577;SDS011;2301;47.354;8.528;2023-05-19T00:29:32;4.00;;;2.13;;
4577;SDS011;2301;47.354;8.528;2023-05-19T00:31:59;3.67;;;2.00;;
4577;SDS011;2301;47.354;8.528;2023-05-19T00:34:26;2.83;;;1.53;;
4577;SDS011;2301;47.354;8.528;2023-05-19T00:36:53;5.73;;;1.70;;
4577;SDS011;2301;47.354;8.528;2023-05-19T00:39:20;13.70;;;1.93;;
4577;SDS011;2301;47.354;8.528;2023-05-19T00:41:48;4.00;;;2.03;;
4577;SDS011;2301;47.354;8.528;2023-05-19T00:44:15;3.30;;;2.23;;
4577;SDS011;2301;47.354;8.528;2023-05-19T00:46:42;3.10;;;2.10;;
4577;SDS011;2301;47.354;8.528;2023-05-19T00:49:09;3.60;;;2.10;;
4577;SDS011;2301;47.354;8.528;2023-05-19T00:51:36;13.00;;;2.20;;
4577;SDS011;2301;47.354;8.528;2023-05-19T00:54:03;2.93;;;1.80;;
4577;SDS011;2301;47.354;8.528;2023-05-19T00:56:30;6.80;;;2.10;;
4577;SDS011;2301;47.354;8.528;2023-05-19T00:58:58;3.30;;;2.03;;
4577;SDS011;2301;47.354;8.528;2023-05-19T01:01:26;5.33;;;2.00;;
4577;SDS011;2301;47.354;8.528;2023-05-19T01:03:53;2.93;;;1.83;;
4577;SDS011;2301;47.354;8.528;2023-05-19T01:06:23;2.53;;;1.70;;
4577;SDS011;2301;47.354;8.528;2023-05-19T01:08:52;3.93;;;1.83;;
4577;SDS011;2301;47.354;8.528;2023-05-19T01:11:19;5.80;;;1.90;;
4577;SDS011;2301;47.354;8.528;2023-05-19T01:13:46;2.93;;;1.67;;
4577;SDS011;2301;47.354;8.528;2023-05-19T01:16:17;3.20;;;1.83;;
4577;SDS011;2301;47.354;8.528;2023-05-19T01:18:51;2.50;;;1.80;;
4577;SDS011;2301;47.354;8.528;2023-05-19T01:21:39;2.97;;;1.90;;
4577;SDS011;2301;47.354;8.528;2023-05-19T01:30:17;3.13;;;2.10;;
4577;SDS011;2301;47.354;8.528;2023-05-19T01:32:51;3.33;;;1.97;;
4577;SDS011;2301;47.354;8.528;2023-05-19T01:35:20;3.40;;;1.73;;
4577;SDS011;2301;47.354;8.528;2023-05-19T01:37:50;3.03;;;1.80;;
4577;SDS011;2301;47.354;8.528;2023-05-19T01:40:17;2.40;;;1.50;;
4577;SDS011;2301;47.354;8.528;2023-05-19T01:42:45;2.63;;;1.53;;
4577;SDS011;2301;47.354;8.528;2023-05-19T01:45:13;3.03;;;1.57;;
4577;SDS011;2301;47.354;8.528;2023-05-19T01:47:45;3.60;;;1.80;;
4577;SDS011;2301;47.354;8.528;2023-05-19T01:50:13;3.20;;;1.93;;
4577;SDS011;2301;47.354;8.528;2023-05-19T01:52:44;11.27;;;2.10;;
4577;SDS011;2301;47.354;8.528;2023-05-19T01:55:14;6.33;;;1.97;;
4577;SDS011;2301;47.354;8.528;2023-05-19T01:57:43;6.90;;;2.50;;
4577;SDS011;2301;47.354;8.528;2023-05-19T02:00:21;2.60;;;1.80;;
4577;SDS011;2301;47.354;8.528;2023-05-19T02:02:59;3.47;;;2.00;;
4577;SDS011;2301;47.354;8.528;2023-05-19T02:05:39;4.90;;;2.00;;
4577;SDS011;2301;47.354;8.528;2023-05-19T02:08:12;4.13;;;2.00;;
4577;SDS011;2301;47.354;8.528;2023-05-19T02:10:54;7.60;;;2.10;;
4577;SDS011;2301;47.354;8.528;2023-05-19T02:13:26;4.40;;;1.97;;
4577;SDS011;2301;47.354;8.528;2023-05-19T02:15:57;4.10;;;1.80;;
4577;SDS011;2301;47.354;8.528;2023-05-19T02:18:31;4.60;;;2.53;;
4577;SDS011;2301;47.354;8.528;2023-05-19T02:20:59;4.73;;;2.03;;
4577;SDS011;2301;47.354;8.528;2023-05-19T02:23:26;3.43;;;2.10;;
4577;SDS011;2301;47.354;8.528;2023-05-19T02:25:53;5.47;;;2.20;;
4577;SDS011;2301;47.354;8.528;2023-05-19T02:28:19;3.90;;;2.30;;
4577;SDS011;2301;47.354;8.528;2023-05-19T02:30:47;5.83;;;2.00;;
4577;SDS011;2301;47.354;8.528;2023-05-19T02:33:13;4.80;;;2.30;;
4577;SDS011;2301;47.354;8.528;2023-05-19T02:35:42;4.93;;;1.90;;
4577;SDS011;2301;47.354;8.528;2023-05-19T02:38:09;4.77;;;1.90;;
4577;SDS011;2301;47.354;8.528;2023-05-19T02:40:36;3.20;;;2.10;;
4577;SDS011;2301;47.354;8.528;2023-05-19T02:43:03;9.20;;;1.93;;
4577;SDS011;2301;47.354;8.528;2023-05-19T02:45:30;5.30;;;2.37;;
4577;SDS011;2301;47.354;8.528;2023-05-19T02:47:58;3.77;;;2.23;;
4577;SDS011;2301;47.354;8.528;2023-05-19T02:50:24;3.00;;;1.70;;
4577;SDS011;2301;47.354;8.528;2023-05-19T02:52:53;4.00;;;2.03;;
4577;SDS011;2301;47.354;8.528;2023-05-19T02:55:19;3.17;;;2.10;;
4577;SDS011;2301;47.354;8.528;2023-05-19T02:57:46;5.87;;;2.20;;
4577;SDS011;2301;47.354;8.528;2023-05-19T03:00:13;6.53;;;2.43;;
4577;SDS011;2301;47.354;8.528;2023-05-19T03:02:41;4.13;;;2.10;;
4577;SDS011;2301;47.354;8.528;2023-05-19T03:05:08;3.90;;;2.10;;
4577;SDS011;2301;47.354;8.528;2023-05-19T03:07:35;4.57;;;2.17;;
4577;SDS011;2301;47.354;8.528;2023-05-19T03:10:04;2.83;;;1.90;;
4577;SDS011;2301;47.354;8.528;2023-05-19T03:12:32;9.90;;;2.30;;
4577;SDS011;2301;47.354;8.528;2023-05-19T03:14:59;3.53;;;2.10;;
4577;SDS011;2301;47.354;8.528;2023-05-19T03:17:26;3.70;;;2.00;;
4577;SDS011;2301;47.354;8.528;2023-05-19T03:19:57;4.10;;;2.40;;
4577;SDS011;2301;47.354;8.528;2023-05-19T03:22:25;5.50;;;2.17;;
4577;SDS011;2301;47.354;8.528;2023-05-19T03:24:51;4.20;;;2.10;;
4577;SDS011;2301;47.354;8.528;2023-05-19T03:27:20;4.90;;;2.20;;
4577;SDS011;2301;47.354;8.528;2023-05-19T03:29:46;4.37;;;2.10;;
4577;SDS011;2301;47.354;8.528;2023-05-19T03:32:13;4.20;;;2.30;;
4577;SDS011;2301;47.354;8.528;2023-05-19T03:34:40;3.87;;;2.07;;
4577;SDS011;2301;47.354;8.528;2023-05-19T03:37:07;4.90;;;2.27;;
4577;SDS011;2301;47.354;8.528;2023-05-19T03:39:36;4.03;;;2.20;;
4577;SDS011;2301;47.354;8.528;2023-05-19T03:42:03;3.77;;;2.10;;
4577;SDS011;2301;47.354;8.528;2023-05-19T03:44:32;3.25;;;1.90;;
4577;SDS011;2301;47.354;8.528;2023-05-19T03:46:59;4.03;;;1.77;;
4577;SDS011;2301;47.354;8.528;2023-05-19T03:49:26;3.97;;;2.00;;
4577;SDS011;2301;47.354;8.528;2023-05-19T03:51:52;3.80;;;1.90;;
4577;SDS011;2301;47.354;8.528;2023-05-19T03:54:19;3.95;;;2.00;;
4577;SDS011;2301;47.354;8.528;2023-05-19T03:56:47;4.03;;;1.97;;
4577;SDS011;2301;47.354;8.528;2023-05-19T03:59:14;4.23;;;2.17;;
4577;SDS011;2301;47.354;8.528;2023-05-19T04:01:42;4.80;;;2.20;;
4577;SDS011;2301;47.354;8.528;2023-05-19T04:04:10;4.27;;;2.20;;
4577;SDS011;2301;47.354;8.528;2023-05-19T04:06:37;3.77;;;2.30;;
4577;SDS011;2301;47.354;8.528;2023-05-19T04:09:09;3.93;;;2.30;;
4577;SDS011;2301;47.354;8.528;2023-05-19T04:11:37;4.60;;;1.90;;
4577;SDS011;2301;47.354;8.528;2023-05-19T04:14:04;8.03;;;2.20;;
4577;SDS011;2301;47.354;8.528;2023-05-19T04:16:31;5.30;;;2.27;;
4577;SDS011;2301;47.354;8.528;2023-05-19T04:18:59;3.20;;;1.83;;
4577;SDS011;2301;47.354;8.528;2023-05-19T04:21:26;3.50;;;2.20;;
4577;SDS011;2301;47.354;8.528;2023-05-19T04:23:53;3.30;;;2.20;;
4577;SDS011;2301;47.354;8.528;2023-05-19T04:26:22;4.40;;;2.30;;
4577;SDS011;2301;47.354;8.528;2023-05-19T04:28:50;3.75;;;2.50;;
4577;SDS011;2301;47.354;8.528;2023-05-19T04:31:17;5.40;;;2.60;;
4577;SDS011;2301;47.354;8.528;2023-05-19T04:33:46;3.50;;;2.00;;
4577;SDS011;2301;47.354;8.528;2023-05-19T04:36:20;4.77;;;2.57;;
4577;SDS011;2301;47.354;8.528;2023-05-19T04:38:50;4.27;;;2.17;;
4577;SDS011;2301;47.354;8.528;2023-05-19T04:41:18;7.10;;;2.17;;
4577;SDS011;2301;47.354;8.528;2023-05-19T04:43:45;3.42;;;2.60;;
4577;SDS011;2301;47.354;8.528;2023-05-19T04:46:14;3.30;;;2.00;;
4577;SDS011;2301;47.354;8.528;2023-05-19T04:48:41;5.70;;;2.30;;
4577;SDS011;2301;47.354;8.528;2023-05-19T04:51:08;6.25;;;2.30;;
4577;SDS011;2301;47.354;8.528;2023-05-19T04:53:39;5.03;;;2.40;;
4577;SDS011;2301;47.354;8.528;2023-05-19T04:56:07;4.88;;;2.30;;
4577;SDS011;2301;47.354;8.528;2023-05-19T04:58:35;5.87;;;2.40;;
4577;SDS011;2301;47.354;8.528;2023-05-19T05:01:02;3.90;;;2.20;;
4577;SDS011;2301;47.354;8.528;2023-05-19T05:03:29;4.63;;;2.60;;
4577;SDS011;2301;47.354;8.528;2023-05-19T05:05:58;3.47;;;2.30;;
4577;SDS011;2301;47.354;8.528;2023-05-19T05:08:25;4.10;;;2.20;;
4577;SDS011;2301;47.354;8.528;2023-05-19T05:10:54;4.73;;;2.47;;
4577;SDS011;2301;47.354;8.528;2023-05-19T05:13:21;6.00;;;2.30;;
4577;SDS011;2301;47.354;8.528;2023-05-19T05:15:49;3.50;;;2.47;;
4577;SDS011;2301;47.354;8.528;2023-05-19T05:18:17;5.97;;;2.63;;
4577;SDS011;2301;47.354;8.528;2023-05-19T05:20:45;3.10;;;2.10;;
4577;SDS011;2301;47.354;8.528;2023-05-19T05:23:12;5.00;;;2.43;;
4577;SDS011;2301;47.354;8.528;2023-05-19T05:25:42;5.47;;;2.37;;
4577;SDS011;2301;47.354;8.528;2023-05-19T05:28:11;6.00;;;2.20;;
4577;SDS011;2301;47.354;8.528;2023-05-19T05:30:38;3.97;;;2.30;;
4577;SDS011;2301;47.354;8.528;2023-05-19T05:33:05;4.97;;;2.40;;
4577;SDS011;2301;47.354;8.528;2023-05-19T05:35:32;3.87;;;2.30;;
4577;SDS011;2301;47.354;8.528;2023-05-19T05:37:59;3.00;;;2.30;;
4577;SDS011;2301;47.354;8.528;2023-05-19T05:40:27;3.73;;;2.40;;
4577;SDS011;2301;47.354;8.528;2023-05-19T05:42:54;4.70;;;2.70;;
4577;SDS011;2301;47.354;8.528;2023-05-19T05:45:24;5.07;;;2.90;;
4577;SDS011;2301;47.354;8.528;2023-05-19T05:47:51;4.90;;;3.03;;
4577;SDS011;2301;47.354;8.528;2023-05-19T05:50:18;4.17;;;2.40;;
4577;SDS011;2301;47.354;8.528;2023-05-19T05:52:46;5.27;;;2.20;;
4577;SDS011;2301;47.354;8.528;2023-05-19T05:55:14;3.03;;;2.17;;
4577;SDS011;2301;47.354;8.528;2023-05-19T05:57:42;3.00;;;2.40;;
4577;SDS011;2301;47.354;8.528;2023-05-19T06:00:09;10.90;;;2.83;;
4577;SDS011;2301;47.354;8.528;2023-05-19T06:02:41;3.92;;;2.42;;
4577;SDS011;2301;47.354;8.528;2023-05-19T06:05:10;3.60;;;2.33;;
4577;SDS011;2301;47.354;8.528;2023-05-19T06:07:37;7.47;;;3.00;;
4577;SDS011;2301;47.354;8.528;2023-05-19T06:10:05;6.00;;;3.20;;
4577;SDS011;2301;47.354;8.528;2023-05-19T06:12:32;3.70;;;2.33;;
4577;SDS011;2301;47.354;8.528;2023-05-19T06:15:00;3.93;;;2.37;;
4577;SDS011;2301;47.354;8.528;2023-05-19T06:17:28;4.13;;;2.30;;
4577;SDS011;2301;47.354;8.528;2023-05-19T06:19:56;7.13;;;2.70;;
4577;SDS011;2301;47.354;8.528;2023-05-19T06:22:23;4.22;;;2.65;;
4577;SDS011;2301;47.354;8.528;2023-05-19T06:24:53;2.93;;;2.03;;
4577;SDS011;2301;47.354;8.528;2023-05-19T06:27:22;3.20;;;2.30;;
4577;SDS011;2301;47.354;8.528;2023-05-19T06:29:49;6.90;;;2.90;;
4577;SDS011;2301;47.354;8.528;2023-05-19T06:32:16;4.20;;;2.70;;
4577;SDS011;2301;47.354;8.528;2023-05-19T06:34:43;5.53;;;2.40;;
4577;SDS011;2301;47.354;8.528;2023-05-19T06:37:11;4.47;;;2.70;;
4577;SDS011;2301;47.354;8.528;2023-05-19T06:39:41;4.40;;;2.77;;
4577;SDS011;2301;47.354;8.528;2023-05-19T06:42:07;4.45;;;2.95;;
4577;SDS011;2301;47.354;8.528;2023-05-19T06:44:34;4.73;;;2.70;;
4577;SDS011;2301;47.354;8.528;2023-05-19T06:47:01;3.83;;;2.50;;
4577;SDS011;2301;47.354;8.528;2023-05-19T06:49:28;5.60;;;2.93;;
4577;SDS011;2301;47.354;8.528;2023-05-19T06:51:55;3.37;;;2.27;;
4577;SDS011;2301;47.354;8.528;2023-05-19T06:54:23;4.27;;;2.60;;
4577;SDS011;2301;47.354;8.528;2023-05-19T06:56:50;4.00;;;2.85;;
4577;SDS011;2301;47.354;8.528;2023-05-19T06:59:17;4.93;;;3.00;;
4577;SDS011;2301;47.354;8.528;2023-05-19T07:01:45;5.80;;;2.97;;
4577;SDS011;2301;47.354;8.528;2023-05-19T07:04:12;6.30;;;2.78;;
4577;SDS011;2301;47.354;8.528;2023-05-19T07:06:39;5.93;;;2.65;;
4577;SDS011;2301;47.354;8.528;2023-05-19T07:09:06;4.67;;;2.67;;
4577;SDS011;2301;47.354;8.528;2023-05-19T07:11:34;5.07;;;2.70;;
4577;SDS011;2301;47.354;8.528;2023-05-19T07:14:01;4.72;;;2.15;;
4577;SDS011;2301;47.354;8.528;2023-05-19T07:16:28;5.00;;;2.30;;
4577;SDS011;2301;47.354;8.528;2023-05-19T07:18:55;3.57;;;2.57;;
4577;SDS011;2301;47.354;8.528;2023-05-19T07:21:22;4.22;;;2.80;;
4577;SDS011;2301;47.354;8.528;2023-05-19T07:23:49;7.73;;;2.63;;
4577;SDS011;2301;47.354;8.528;2023-05-19T07:26:15;3.93;;;2.60;;
4577;SDS011;2301;47.354;8.528;2023-05-19T07:28:44;7.13;;;3.07;;
4577;SDS011;2301;47.354;8.528;2023-05-19T07:31:10;4.57;;;2.45;;
4577;SDS011;2301;47.354;8.528;2023-05-19T07:33:37;5.00;;;2.50;;
4577;SDS011;2301;47.354;8.528;2023-05-19T07:36:04;7.95;;;2.60;;
4577;SDS011;2301;47.354;8.528;2023-05-19T07:38:31;3.97;;;2.53;;
4577;SDS011;2301;47.354;8.528;2023-05-19T07:40:59;3.43;;;2.37;;
4577;SDS011;2301;47.354;8.528;2023-05-19T07:43:27;4.80;;;3.10;;
4577;SDS011;2301;47.354;8.528;2023-05-19T07:45:55;5.38;;;2.95;;
4577;SDS011;2301;47.354;8.528;2023-05-19T07:48:22;4.32;;;2.92;;
4577;SDS011;2301;47.354;8.528;2023-05-19T07:50:50;4.53;;;2.97;;
4577;SDS011;2301;47.354;8.528;2023-05-19T07:53:17;3.53;;;2.57;;
4577;SDS011;2301;47.354;8.528;2023-05-19T07:55:46;4.60;;;2.90;;
4577;SDS011;2301;47.354;8.528;2023-05-19T07:58:14;5.40;;;2.83;;
4577;SDS011;2301;47.354;8.528;2023-05-19T08:00:41;3.90;;;2.90;;
4577;SDS011;2301;47.354;8.528;2023-05-19T08:03:11;5.23;;;2.70;;
4577;SDS011;2301;47.354;8.528;2023-05-19T08:05:41;3.65;;;3.17;;
4577;SDS011;2301;47.354;8.528;2023-05-19T08:08:08;6.82;;;2.97;;
4577;SDS011;2301;47.354;8.528;2023-05-19T08:10:35;6.70;;;3.03;;
4577;SDS011;2301;47.354;8.528;2023-05-19T08:13:02;5.80;;;3.10;;
4577;SDS011;2301;47.354;8.528;2023-05-19T08:15:30;5.60;;;2.85;;
4577;SDS011;2301;47.354;8.528;2023-05-19T08:17:59;4.83;;;2.90;;
4577;SDS011;2301;47.354;8.528;2023-05-19T08:20:32;5.73;;;2.60;;
4577;SDS011;2301;47.354;8.528;2023-05-19T08:22:59;6.45;;;3.10;;
4577;SDS011;2301;47.354;8.528;2023-05-19T08:25:26;4.70;;;2.93;;
4577;SDS011;2301;47.354;8.528;2023-05-19T08:27:53;4.40;;;2.80;;
4577;SDS011;2301;47.354;8.528;2023-05-19T08:30:20;5.20;;;3.00;;
4577;SDS011;2301;47.354;8.528;2023-05-19T08:32:47;3.87;;;3.07;;
4577;SDS011;2301;47.354;8.528;2023-05-19T08:35:14;9.68;;;3.40;;
4577;SDS011;2301;47.354;8.528;2023-05-19T08:37:43;5.90;;;2.80;;
4577;SDS011;2301;47.354;8.528;2023-05-19T08:40:10;6.20;;;3.60;;
4577;SDS011;2301;47.354;8.528;2023-05-19T08:42:42;4.50;;;2.93;;
4577;SDS011;2301;47.354;8.528;2023-05-19T08:45:09;4.97;;;3.25;;
4577;SDS011;2301;47.354;8.528;2023-05-19T08:47:37;4.95;;;3.10;;
4577;SDS011;2301;47.354;8.528;2023-05-19T08:50:05;4.53;;;2.93;;
4577;SDS011;2301;47.354;8.528;2023-05-19T08:52:35;4.53;;;3.10;;
4577;SDS011;2301;47.354;8.528;2023-05-19T08:55:14;5.93;;;3.03;;
4577;SDS011;2301;47.354;8.528;2023-05-19T08:57:50;6.40;;;3.23;;
4577;SDS011;2301;47.354;8.528;2023-05-19T09:00:17;6.00;;;3.23;;
4577;SDS011;2301;47.354;8.528;2023-05-19T09:02:44;4.47;;;3.17;;
4577;SDS011;2301;47.354;8.528;2023-05-19T09:05:15;6.50;;;4.13;;
4577;SDS011;2301;47.354;8.528;2023-05-19T09:07:43;5.87;;;3.10;;
4577;SDS011;2301;47.354;8.528;2023-05-19T09:10:10;5.10;;;3.00;;
4577;SDS011;2301;47.354;8.528;2023-05-19T09:12:40;8.10;;;3.25;;
4577;SDS011;2301;47.354;8.528;2023-05-19T09:15:09;5.47;;;3.00;;
4577;SDS011;2301;47.354;8.528;2023-05-19T09:17:37;6.53;;;3.57;;
4577;SDS011;2301;47.354;8.528;2023-05-19T09:20:05;4.63;;;3.00;;
4577;SDS011;2301;47.354;8.528;2023-05-19T09:22:39;5.30;;;3.50;;
4577;SDS011;2301;47.354;8.528;2023-05-19T09:27:53;7.63;;;3.80;;
4577;SDS011;2301;47.354;8.528;2023-05-19T09:30:20;4.27;;;2.90;;
4577;SDS011;2301;47.354;8.528;2023-05-19T09:32:49;7.87;;;3.70;;
4577;SDS011;2301;47.354;8.528;2023-05-19T09:35:17;6.03;;;3.43;;
4577;SDS011;2301;47.354;8.528;2023-05-19T09:37:45;6.50;;;3.53;;
4577;SDS011;2301;47.354;8.528;2023-05-19T09:40:12;6.90;;;3.70;;
4577;SDS011;2301;47.354;8.528;2023-05-19T09:42:41;6.73;;;3.40;;
4577;SDS011;2301;47.354;8.528;2023-05-19T09:45:09;5.23;;;3.13;;
4577;SDS011;2301;47.354;8.528;2023-05-19T09:47:37;6.57;;;3.47;;
4577;SDS011;2301;47.354;8.528;2023-05-19T09:50:08;5.63;;;3.47;;
4577;SDS011;2301;47.354;8.528;2023-05-19T09:52:36;11.13;;;3.47;;
4577;SDS011;2301;47.354;8.528;2023-05-19T09:55:05;6.80;;;3.40;;
4577;SDS011;2301;47.354;8.528;2023-05-19T09:57:35;5.63;;;3.50;;
4577;SDS011;2301;47.354;8.528;2023-05-19T10:00:05;5.63;;;3.20;;
4577;SDS011;2301;47.354;8.528;2023-05-19T10:02:39;5.47;;;3.70;;
4577;SDS011;2301;47.354;8.528;2023-05-19T10:05:08;7.07;;;3.30;;
4577;SDS011;2301;47.354;8.528;2023-05-19T10:07:38;5.90;;;3.23;;
4577;SDS011;2301;47.354;8.528;2023-05-19T10:10:08;5.00;;;3.20;;
4577;SDS011;2301;47.354;8.528;2023-05-19T10:12:36;6.93;;;4.17;;
4577;SDS011;2301;47.354;8.528;2023-05-19T10:15:07;6.57;;;3.27;;
4577;SDS011;2301;47.354;8.528;2023-05-19T10:17:36;4.43;;;3.37;;
4577;SDS011;2301;47.354;8.528;2023-05-19T10:20:05;8.27;;;3.47;;
4577;SDS011;2301;47.354;8.528;2023-05-19T10:22:34;7.23;;;3.10;;
4577;SDS011;2301;47.354;8.528;2023-05-19T10:25:01;7.57;;;3.57;;
4577;SDS011;2301;47.354;8.528;2023-05-19T10:27:28;4.20;;;3.03;;
4577;SDS011;2301;47.354;8.528;2023-05-19T10:29:58;6.90;;;3.73;;
4577;SDS011;2301;47.354;8.528;2023-05-19T10:32:31;5.67;;;3.20;;
4577;SDS011;2301;47.354;8.528;2023-05-19T10:35:13;5.20;;;3.17;;
4577;SDS011;2301;47.354;8.528;2023-05-19T10:38:14;5.60;;;3.13;;
4577;SDS011;2301;47.354;8.528;2023-05-19T10:40:50;10.50;;;3.43;;
4577;SDS011;2301;47.354;8.528;2023-05-19T10:43:24;5.50;;;3.83;;
4577;SDS011;2301;47.354;8.528;2023-05-19T10:46:08;5.83;;;4.10;;
4577;SDS011;2301;47.354;8.528;2023-05-19T10:48:36;4.77;;;3.43;;
4577;SDS011;2301;47.354;8.528;2023-05-19T10:51:04;8.17;;;3.97;;
4577;SDS011;2301;47.354;8.528;2023-05-19T10:53:36;4.97;;;3.40;;
4577;SDS011;2301;47.354;8.528;2023-05-19T10:56:10;7.53;;;4.00;;
4577;SDS011;2301;47.354;8.528;2023-05-19T10:58:38;7.30;;;3.40;;
4577;SDS011;2301;47.354;8.528;2023-05-19T11:01:11;5.73;;;3.37;;
4577;SDS011;2301;47.354;8.528;2023-05-19T11:03:47;5.77;;;3.40;;
4577;SDS011;2301;47.354;8.528;2023-05-19T11:06:16;9.10;;;3.70;;
4577;SDS011;2301;47.354;8.528;2023-05-19T11:08:54;7.53;;;4.00;;
4577;SDS011;2301;47.354;8.528;2023-05-19T11:11:24;6.30;;;4.03;;
4577;SDS011;2301;47.354;8.528;2023-05-19T11:13:52;5.03;;;3.20;;
4577;SDS011;2301;47.354;8.528;2023-05-19T11:16:25;6.70;;;3.50;;
4577;SDS011;2301;47.354;8.528;2023-05-19T11:18:55;8.70;;;3.70;;
4577;SDS011;2301;47.354;8.528;2023-05-19T11:21:26;7.80;;;4.03;;
4577;SDS011;2301;47.354;8.528;2023-05-19T11:24:06;7.03;;;3.20;;
4577;SDS011;2301;47.354;8.528;2023-05-19T11:26:39;6.10;;;3.73;;
4577;SDS011;2301;47.354;8.528;2023-05-19T11:29:07;6.80;;;3.50;;
4577;SDS011;2301;47.354;8.528;2023-05-19T11:31:35;5.20;;;3.13;;
4577;SDS011;2301;47.354;8.528;2023-05-19T11:34:05;5.40;;;3.70;;
4577;SDS011;2301;47.354;8.528;2023-05-19T11:36:33;5.63;;;3.37;;
4577;SDS011;2301;47.354;8.528;2023-05-19T11:39:02;6.33;;;3.50;;
4577;SDS011;2301;47.354;8.528;2023-05-19T11:41:31;11.90;;;3.40;;
4577;SDS011;2301;47.354;8.528;2023-05-19T11:43:57;7.20;;;3.23;;
4577;SDS011;2301;47.354;8.528;2023-05-19T11:46:24;5.83;;;3.50;;
4577;SDS011;2301;47.354;8.528;2023-05-19T11:48:52;5.50;;;3.30;;
4577;SDS011;2301;47.354;8.528;2023-05-19T11:51:21;6.97;;;3.33;;
4577;SDS011;2301;47.354;8.528;2023-05-19T11:53:49;6.60;;;3.70;;
4577;SDS011;2301;47.354;8.528;2023-05-19T11:56:18;7.30;;;3.67;;
4577;SDS011;2301;47.354;8.528;2023-05-19T11:58:45;6.23;;;2.90;;
4577;SDS011;2301;47.354;8.528;2023-05-19T12:01:12;14.20;;;3.60;;
4577;SDS011;2301;47.354;8.528;2023-05-19T12:03:39;5.80;;;3.30;;
4577;SDS011;2301;47.354;8.528;2023-05-19T12:06:06;5.40;;;3.23;;
4577;SDS011;2301;47.354;8.528;2023-05-19T12:08:36;7.00;;;3.43;;
4577;SDS011;2301;47.354;8.528;2023-05-19T12:11:03;4.90;;;3.10;;
4577;SDS011;2301;47.354;8.528;2023-05-19T12:13:31;6.97;;;3.30;;
4577;SDS011;2301;47.354;8.528;2023-05-19T12:15:59;4.43;;;2.77;;
4577;SDS011;2301;47.354;8.528;2023-05-19T12:18:27;6.17;;;2.50;;
4577;SDS011;2301;47.354;8.528;2023-05-19T12:20:56;5.77;;;3.10;;
4577;SDS011;2301;47.354;8.528;2023-05-19T12:23:25;5.20;;;2.87;;
4577;SDS011;2301;47.354;8.528;2023-05-19T12:25:57;6.27;;;2.90;;
4577;SDS011;2301;47.354;8.528;2023-05-19T12:28:24;4.30;;;3.00;;
4577;SDS011;2301;47.354;8.528;2023-05-19T12:30:54;5.60;;;3.00;;
4577;SDS011;2301;47.354;8.528;2023-05-19T12:33:22;4.70;;;2.70;;
4577;SDS011;2301;47.354;8.528;2023-05-19T12:35:50;3.40;;;2.70;;
4577;SDS011;2301;47.354;8.528;2023-05-19T12:38:18;5.53;;;2.90;;
4577;SDS011;2301;47.354;8.528;2023-05-19T12:40:46;6.83;;;3.63;;
4577;SDS011;2301;47.354;8.528;2023-05-19T12:43:19;6.63;;;3.53;;
4577;SDS011;2301;47.354;8.528;2023-05-19T12:45:46;4.97;;;2.90;;
4577;SDS011;2301;47.354;8.528;2023-05-19T12:48:13;5.43;;;2.80;;
4577;SDS011;2301;47.354;8.528;2023-05-19T12:50:41;6.00;;;2.80;;
4577;SDS011;2301;47.354;8.528;2023-05-19T12:53:09;5.33;;;2.90;;
4577;SDS011;2301;47.354;8.528;2023-05-19T12:55:37;6.57;;;3.27;;
4577;SDS011;2301;47.354;8.528;2023-05-19T12:58:07;4.10;;;2.70;;
4577;SDS011;2301;47.354;8.528;2023-05-19T13:00:40;8.33;;;3.13;;
4577;SDS011;2301;47.354;8.528;2023-05-19T13:03:13;7.10;;;2.90;;
4577;SDS011;2301;47.354;8.528;2023-05-19T13:05:42;7.03;;;3.50;;
4577;SDS011;2301;47.354;8.528;2023-05-19T13:08:13;4.90;;;2.60;;
4577;SDS011;2301;47.354;8.528;2023-05-19T13:10:44;5.70;;;3.63;;
4577;SDS011;2301;47.354;8.528;2023-05-19T13:13:14;4.40;;;2.70;;
4577;SDS011;2301;47.354;8.528;2023-05-19T13:15:45;4.83;;;3.43;;
4577;SDS011;2301;47.354;8.528;2023-05-19T13:18:13;4.57;;;2.60;;
4577;SDS011;2301;47.354;8.528;2023-05-19T13:20:41;6.37;;;2.93;;
4577;SDS011;2301;47.354;8.528;2023-05-19T13:23:08;4.87;;;2.80;;
4577;SDS011;2301;47.354;8.528;2023-05-19T13:25:36;8.97;;;3.20;;
4577;SDS011;2301;47.354;8.528;2023-05-19T13:28:03;5.80;;;3.00;;
4577;SDS011;2301;47.354;8.528;2023-05-19T13:30:30;5.13;;;2.50;;
4577;SDS011;2301;47.354;8.528;2023-05-19T13:33:00;3.73;;;2.50;;
4577;SDS011;2301;47.354;8.528;2023-05-19T13:35:27;6.30;;;3.33;;
4577;SDS011;2301;47.354;8.528;2023-05-19T13:37:54;5.13;;;2.70;;
4577;SDS011;2301;47.354;8.528;2023-05-19T13:40:21;5.93;;;3.43;;
4577;SDS011;2301;47.354;8.528;2023-05-19T13:42:49;5.23;;;2.77;;
4577;SDS011;2301;47.354;8.528;2023-05-19T13:45:16;6.80;;;3.00;;
4577;SDS011;2301;47.354;8.528;2023-05-19T13:47:43;3.20;;;2.60;;
4577;SDS011;2301;47.354;8.528;2023-05-19T13:50:11;9.03;;;3.10;;
4577;SDS011;2301;47.354;8.528;2023-05-19T13:52:38;5.23;;;3.20;;
4577;SDS011;2301;47.354;8.528;2023-05-19T13:55:06;5.70;;;2.73;;
4577;SDS011;2301;47.354;8.528;2023-05-19T13:57:33;7.60;;;3.03;;
4577;SDS011;2301;47.354;8.528;2023-05-19T14:00:01;6.17;;;3.10;;
4577;SDS011;2301;47.354;8.528;2023-05-19T14:02:28;3.80;;;2.73;;
4577;SDS011;2301;47.354;8.528;2023-05-19T14:04:55;5.03;;;3.00;;
4577;SDS011;2301;47.354;8.528;2023-05-19T14:07:23;7.00;;;3.27;;
4577;SDS011;2301;47.354;8.528;2023-05-19T14:09:51;6.07;;;3.07;;
4577;SDS011;2301;47.354;8.528;2023-05-19T14:12:18;4.37;;;2.80;;
4577;SDS011;2301;47.354;8.528;2023-05-19T14:14:45;8.70;;;2.83;;
4577;SDS011;2301;47.354;8.528;2023-05-19T14:17:15;7.27;;;3.20;;
4577;SDS011;2301;47.354;8.528;2023-05-19T14:19:44;8.13;;;2.93;;
4577;SDS011;2301;47.354;8.528;2023-05-19T14:22:11;3.83;;;2.37;;
4577;SDS011;2301;47.354;8.528;2023-05-19T14:24:40;5.70;;;2.93;;
4577;SDS011;2301;47.354;8.528;2023-05-19T14:27:10;3.90;;;2.73;;
4577;SDS011;2301;47.354;8.528;2023-05-19T14:29:41;6.57;;;3.37;;
4577;SDS011;2301;47.354;8.528;2023-05-19T14:32:07;4.23;;;2.53;;
4577;SDS011;2301;47.354;8.528;2023-05-19T14:34:34;6.10;;;2.80;;
4577;SDS011;2301;47.354;8.528;2023-05-19T14:37:01;6.00;;;2.73;;
4577;SDS011;2301;47.354;8.528;2023-05-19T14:39:28;5.33;;;2.90;;
4577;SDS011;2301;47.354;8.528;2023-05-19T14:41:57;6.27;;;3.17;;
4577;SDS011;2301;47.354;8.528;2023-05-19T14:44:28;4.90;;;2.60;;
4577;SDS011;2301;47.354;8.528;2023-05-19T14:46:55;9.17;;;3.17;;
4577;SDS011;2301;47.354;8.528;2023-05-19T14:49:22;7.13;;;2.90;;
4577;SDS011;2301;47.354;8.528;2023-05-19T14:51:49;5.00;;;2.80;;
4577;SDS011;2301;47.354;8.528;2023-05-19T14:54:16;4.50;;;2.43;;
4577;SDS011;2301;47.354;8.528;2023-05-19T14:56:43;7.70;;;2.97;;
4577;SDS011;2301;47.354;8.528;2023-05-19T14:59:11;4.37;;;2.80;;
4577;SDS011;2301;47.354;8.528;2023-05-19T15:01:38;6.43;;;2.87;;
4577;SDS011;2301;47.354;8.528;2023-05-19T15:04:05;4.30;;;2.43;;
4577;SDS011;2301;47.354;8.528;2023-05-19T15:06:32;5.00;;;2.70;;
4577;SDS011;2301;47.354;8.528;2023-05-19T15:08:59;3.33;;;2.43;;
4577;SDS011;2301;47.354;8.528;2023-05-19T15:11:26;7.43;;;2.60;;
4577;SDS011;2301;47.354;8.528;2023-05-19T15:13:52;5.03;;;2.30;;
4577;SDS011;2301;47.354;8.528;2023-05-19T15:16:21;4.50;;;2.43;;
4577;SDS011;2301;47.354;8.528;2023-05-19T15:18:47;4.37;;;2.43;;
4577;SDS011;2301;47.354;8.528;2023-05-19T15:21:15;6.83;;;2.77;;
4577;SDS011;2301;47.354;8.528;2023-05-19T15:23:42;6.30;;;2.70;;
4577;SDS011;2301;47.354;8.528;2023-05-19T15:26:09;6.27;;;2.87;;
4577;SDS011;2301;47.354;8.528;2023-05-19T15:28:39;9.77;;;2.90;;
4577;SDS011;2301;47.354;8.528;2023-05-19T15:31:05;5.53;;;2.60;;
4577;SDS011;2301;47.354;8.528;2023-05-19T15:33:34;6.17;;;2.50;;